Mount Joy, PA (17552)

6:24 PM EST on March 04, 2015 (GMT -0500)
Mount Joy | Change Station
CLOSE
Current Station
Personal Weather Station
Location: Mount Joy, PA
Elevation: 377 ft
Nearby Weather Stations
Active Advisory: Winter Storm Warning

Elev 377 ft 40.12 °N, 76.48 °W | Updated 21 seconds ago

Rain
Rain
40.3 °F
Feels Like 40 °F
N
0.0
Wind Variable Wind from NW
Gusts 0.0 mph

Today
High -- | Low -- °F
--% Chance of Precip.
Yesterday
High -- | Low -- °F
Precip. -- in
6:35 AM 6:00 PM
Waxing Gibbous, 99% visible
Pressure 29.91 in
Visibility 0.2 miles
Clouds Overcast 2400 ft
Windchill 40 °F
Dew Point 40 °F
Humidity 99%
Rainfall 0.50 in
Snow Depth Not available.
UV 0.0 out of 12
Pollen .50 out of 12
Air Quality Not available.
Flu Activity Not available.
METAR KLNS 042253Z 00000KT M1/4SM FG OVC024 03/03 A2989 RMK AO2 RAE33 SLP126 P0000 T00280028

More Conditions Fewer Conditions

Pressure 29.91 in
Visibility 0.2 miles
Clouds Overcast 2400 ft
Windchill 40 °F
Dew Point 40 °F
Humidity 99%
Rainfall 0.50 in
Snow Depth Not available.
UV 0.0 out of 12
Pollen .50 out of 12
Air Quality Not available.
Flu Activity Not available.
METAR KLNS 042253Z 00000KT M1/4SM FG OVC024 03/03 A2989 RMK AO2 RAE33 SLP126 P0000 T00280028

More Conditions Fewer Conditions

10-Day Weather Forecast

Almanac

Astronomy

Mar. 04, 2015 Rise Set
Actual Time
Civil Twilight
Nautical Twilight
Astronomical Twilight
Moon
Length of Visible Light
Length of Day
Tomorrow will be .
, % of the Moon is Illuminated

Today's Extremes

State Highs State Lows

Community

WunderPhotos

Upload Photos

1,802,603 photos uploaded!

WunderBlogs® & News

Nearby

Air Quality

  Air Quality AQ Index Pollutant
Not available.

Snow Depth

Station Depth Elevation

Earthquake Activity

City Distance Mag. Time & Date
Minimum magnitude displayed is 2.5.

Coastal Water Temperatures

Place Temperature

Nearby Weather Stations

Winter Storm Warning
Statement as of 1:46 PM EST on March 04, 2015

... Winter Storm Warning remains in effect from 7 PM this evening
to 7 PM EST Thursday...

* accumulations... snow accumulation of 5 to 7 inches.

* Hazard types... snow.

* Timing... snow will redevelop this evening and continue overnight
into Thursday.

* Impacts... hazardous travel.

* Temperatures..20s to lower 30s.

Precautionary/preparedness actions...

Dangerous winter weather conditions are expected or occurring.
Use extreme caution if traveling. For the latest weather
information... go to weather.Gov/statecollege or monitor NOAA
Weather Radio.

Report snow or ice accumulation to the National Weather Service
State College by sending an email to ctp.Stormreports@noaa.Gov...
posting to the NWS State College facebook Page... or tweet
@nwsstatecollege with the hashtag c... T... p... W... x.